createdAt,value
2022-12-25T00:00:54.664Z,8.30
2022-12-25T00:03:21.182Z,7.30
2022-12-25T00:05:47.692Z,7.87
2022-12-25T00:08:14.000Z,7.53
2022-12-25T00:10:45.295Z,8.10
2022-12-25T00:13:11.950Z,8.30
2022-12-25T00:15:40.873Z,7.43
2022-12-25T00:18:07.264Z,8.33
2022-12-25T00:20:33.560Z,8.73
2022-12-25T00:22:59.825Z,8.20
2022-12-25T00:25:26.137Z,8.23
2022-12-25T00:27:52.468Z,7.13
2022-12-25T00:30:18.836Z,8.50
2022-12-25T00:32:45.223Z,7.73
2022-12-25T00:35:11.538Z,7.90
2022-12-25T00:37:37.852Z,7.77
2022-12-25T00:40:04.535Z,7.60
2022-12-25T00:42:30.798Z,7.43
2022-12-25T00:44:57.155Z,7.67
2022-12-25T00:47:23.538Z,8.20
2022-12-25T00:49:49.817Z,7.73
2022-12-25T00:52:16.072Z,7.70
2022-12-25T00:54:42.363Z,8.37
2022-12-25T00:57:08.696Z,9.37
2022-12-25T00:59:35.455Z,8.40
2022-12-25T01:02:21.900Z,9.33
2022-12-25T01:04:49.111Z,8.40
2022-12-25T01:07:16.832Z,9.23
2022-12-25T01:10:03.189Z,9.87
2022-12-25T01:12:30.348Z,10.33
2022-12-25T01:14:56.764Z,9.87
2022-12-25T01:17:23.316Z,9.10
2022-12-25T01:19:49.854Z,9.37
2022-12-25T01:22:16.436Z,8.60
2022-12-25T01:24:44.114Z,9.40
2022-12-25T01:27:11.484Z,9.93
2022-12-25T01:29:38.397Z,9.63
2022-12-25T01:32:05.305Z,9.63
2022-12-25T01:34:31.654Z,10.17
2022-12-25T01:36:58.032Z,10.03
2022-12-25T01:39:24.482Z,9.13
2022-12-25T01:41:50.749Z,9.57
2022-12-25T01:44:19.860Z,8.93
2022-12-25T01:46:46.222Z,9.00
2022-12-25T01:49:25.456Z,9.33
2022-12-25T01:52:00.510Z,9.50
2022-12-25T01:54:58.162Z,9.00
2022-12-25T01:57:30.039Z,8.67
2022-12-25T01:59:58.221Z,8.37
2022-12-25T02:02:25.320Z,9.30
2022-12-25T02:05:01.184Z,9.63
2022-12-25T02:07:29.404Z,8.07
2022-12-25T02:09:55.760Z,8.47
2022-12-25T02:12:28.023Z,9.10
2022-12-25T02:15:04.629Z,8.77
2022-12-25T02:17:52.910Z,8.87
2022-12-25T02:20:42.885Z,8.47
2022-12-25T02:23:30.670Z,8.60
2022-12-25T02:26:16.463Z,8.40
2022-12-25T02:29:01.266Z,9.00
2022-12-25T02:31:53.099Z,9.10
2022-12-25T02:34:34.969Z,8.53
2022-12-25T02:37:23.389Z,9.30
2022-12-25T02:39:59.132Z,9.13
2022-12-25T02:43:07.321Z,7.73
2022-12-25T02:46:02.424Z,8.13
2022-12-25T02:48:51.414Z,8.03
2022-12-25T02:51:39.581Z,8.00
2022-12-25T02:54:29.238Z,8.03
2022-12-25T02:57:17.037Z,8.60
2022-12-25T03:00:05.450Z,8.00
2022-12-25T03:02:52.162Z,8.53
2022-12-25T03:05:44.138Z,8.50
2022-12-25T03:08:18.996Z,8.67
2022-12-25T03:11:08.775Z,8.40
2022-12-25T03:13:38.868Z,8.77
2022-12-25T03:16:24.529Z,7.23
2022-12-25T03:18:50.955Z,8.67
2022-12-25T03:21:36.012Z,8.33
2022-12-25T03:24:21.242Z,8.07
2022-12-25T03:26:57.611Z,8.30
2022-12-25T03:29:45.660Z,8.60
2022-12-25T03:32:30.441Z,9.03
2022-12-25T03:35:23.510Z,8.80
2022-12-25T03:38:43.240Z,8.63
2022-12-25T03:41:59.244Z,8.13
2022-12-25T03:44:53.176Z,8.37
2022-12-25T03:47:59.240Z,8.10
2022-12-25T03:51:03.505Z,8.63
2022-12-25T03:54:06.342Z,9.57
2022-12-25T03:56:52.540Z,8.73
2022-12-25T03:59:39.382Z,9.70
2022-12-25T04:02:24.214Z,9.90
2022-12-25T04:05:09.424Z,8.93
2022-12-25T04:07:54.142Z,9.30
2022-12-25T04:10:38.981Z,9.83
2022-12-25T04:13:23.718Z,10.30
2022-12-25T04:16:11.000Z,9.47
2022-12-25T04:18:56.521Z,9.97
2022-12-25T04:21:41.683Z,9.90
2022-12-25T04:24:29.049Z,9.70
2022-12-25T04:27:14.339Z,9.10
2022-12-25T04:29:59.146Z,10.57
2022-12-25T04:32:44.036Z,9.97
2022-12-25T04:35:29.175Z,10.43
2022-12-25T04:37:56.295Z,10.23
2022-12-25T04:40:22.674Z,10.00
2022-12-25T04:42:52.917Z,10.57
2022-12-25T04:45:19.399Z,9.53
2022-12-25T04:47:45.784Z,10.63
2022-12-25T04:50:12.097Z,9.73
2022-12-25T04:52:40.750Z,10.93
2022-12-25T04:55:08.564Z,10.70
2022-12-25T04:57:35.314Z,10.43
2022-12-25T05:00:01.846Z,10.17
2022-12-25T05:02:28.339Z,10.93
2022-12-25T05:04:54.808Z,10.90
2022-12-25T05:07:21.124Z,9.93
2022-12-25T05:09:47.471Z,10.23
2022-12-25T05:12:13.964Z,10.40
2022-12-25T05:14:41.081Z,10.17
2022-12-25T05:17:07.946Z,10.07
2022-12-25T05:19:34.922Z,10.23
2022-12-25T05:22:01.302Z,10.13
2022-12-25T05:24:27.878Z,10.43
2022-12-25T05:26:54.497Z,10.50
2022-12-25T05:29:20.829Z,10.90
2022-12-25T05:31:47.145Z,11.17
2022-12-25T05:34:13.520Z,10.40
2022-12-25T05:36:39.791Z,10.57
2022-12-25T05:39:06.092Z,11.13
2022-12-25T05:41:34.806Z,10.30
2022-12-25T05:44:01.516Z,10.37
2022-12-25T05:46:27.857Z,10.20
2022-12-25T05:48:54.238Z,10.27
2022-12-25T05:51:20.537Z,11.27
2022-12-25T05:53:47.012Z,10.87
2022-12-25T05:56:13.437Z,9.90
2022-12-25T05:58:40.515Z,9.60
2022-12-25T06:01:15.502Z,10.63
2022-12-25T06:03:41.873Z,10.27
2022-12-25T06:06:09.004Z,10.27
2022-12-25T06:08:35.533Z,10.10
2022-12-25T06:11:07.093Z,10.10
2022-12-25T06:13:34.463Z,10.10
2022-12-25T06:16:05.660Z,10.03
2022-12-25T06:18:35.470Z,9.77
2022-12-25T06:21:06.082Z,9.70
2022-12-25T06:23:32.512Z,10.43
2022-12-25T06:25:59.563Z,9.87
2022-12-25T06:28:25.878Z,9.73
2022-12-25T06:30:52.187Z,9.83
2022-12-25T06:33:18.491Z,10.23
2022-12-25T06:35:44.785Z,10.47
2022-12-25T06:38:11.120Z,10.23
2022-12-25T06:40:37.446Z,9.63
2022-12-25T06:43:03.778Z,9.80
2022-12-25T06:45:30.100Z,9.93
2022-12-25T06:47:56.607Z,9.90
2022-12-25T06:50:22.927Z,10.33
2022-12-25T06:52:49.299Z,10.60
2022-12-25T06:55:15.601Z,10.77
2022-12-25T06:57:41.871Z,10.47
2022-12-25T07:00:08.941Z,9.67
2022-12-25T07:02:38.241Z,9.93
2022-12-25T07:05:05.492Z,9.67
2022-12-25T07:07:31.769Z,11.27
2022-12-25T07:09:58.065Z,11.33
2022-12-25T07:12:24.440Z,10.57
2022-12-25T07:14:54.060Z,10.40
2022-12-25T07:17:21.433Z,9.67
2022-12-25T07:19:48.172Z,9.90
2022-12-25T07:22:15.893Z,9.23
2022-12-25T07:24:42.486Z,9.97
2022-12-25T07:27:09.112Z,9.93
2022-12-25T07:29:35.406Z,9.40
2022-12-25T07:32:01.831Z,9.43
2022-12-25T07:34:28.200Z,9.50
2022-12-25T07:36:54.853Z,9.37
2022-12-25T07:39:21.162Z,10.47
2022-12-25T07:41:47.495Z,9.57
2022-12-25T07:44:13.864Z,9.73
2022-12-25T07:46:40.185Z,10.27
2022-12-25T07:49:06.693Z,9.57
2022-12-25T07:51:33.149Z,9.73
2022-12-25T07:53:59.434Z,9.40
2022-12-25T07:56:25.868Z,9.03
2022-12-25T07:58:52.282Z,10.43
2022-12-25T08:01:22.184Z,9.83
2022-12-25T08:04:08.142Z,8.57
2022-12-25T08:06:35.262Z,14.63
2022-12-25T08:09:15.058Z,9.30
2022-12-25T08:11:46.650Z,8.50
2022-12-25T08:14:13.366Z,9.77
2022-12-25T08:16:41.443Z,9.00
2022-12-25T08:19:09.239Z,9.00
2022-12-25T08:21:35.640Z,9.00
2022-12-25T08:24:03.052Z,9.20
2022-12-25T08:26:29.560Z,9.13
2022-12-25T08:28:55.889Z,8.17
2022-12-25T08:31:25.306Z,8.23
2022-12-25T08:33:53.956Z,8.33
2022-12-25T08:36:21.000Z,7.70
2022-12-25T08:38:47.952Z,9.40
2022-12-25T08:41:17.209Z,7.33
2022-12-25T08:43:43.910Z,7.67
2022-12-25T08:46:10.779Z,7.80
2022-12-25T08:48:37.477Z,7.60
2022-12-25T08:51:04.731Z,7.53
2022-12-25T08:53:31.278Z,7.23
2022-12-25T08:56:03.699Z,7.50
2022-12-25T08:58:30.145Z,7.77
2022-12-25T09:00:56.807Z,7.07
2022-12-25T09:03:23.998Z,7.23
2022-12-25T09:05:51.438Z,7.00
2022-12-25T09:08:18.126Z,10.53
2022-12-25T09:10:44.395Z,16.23
2022-12-25T09:13:11.128Z,15.47
2022-12-25T09:15:38.635Z,14.80
2022-12-25T09:18:05.879Z,10.30
2022-12-25T09:20:32.797Z,8.13
2022-12-25T09:22:59.187Z,8.00
2022-12-25T09:25:25.586Z,6.73
2022-12-25T09:27:51.905Z,9.37
2022-12-25T09:30:18.335Z,17.13
2022-12-25T09:32:44.626Z,17.07
2022-12-25T09:35:11.060Z,15.47
2022-12-25T09:37:37.418Z,11.87
2022-12-25T09:40:04.483Z,10.33
2022-12-25T09:42:32.286Z,7.80
2022-12-25T09:45:03.495Z,7.70
2022-12-25T09:47:33.748Z,6.60
2022-12-25T09:50:10.080Z,6.63
2022-12-25T09:52:54.960Z,6.57
2022-12-25T09:55:26.599Z,6.50
2022-12-25T09:57:56.667Z,6.37
2022-12-25T10:00:28.572Z,6.40
2022-12-25T10:03:16.888Z,7.60
2022-12-25T10:06:09.133Z,8.73
2022-12-25T10:08:57.134Z,7.60
2022-12-25T10:11:42.713Z,6.17
2022-12-25T10:14:27.237Z,7.03
2022-12-25T10:17:11.845Z,6.43
2022-12-25T10:20:00.447Z,5.97
2022-12-25T10:22:34.568Z,5.93
2022-12-25T10:25:03.349Z,6.03
2022-12-25T10:27:40.511Z,6.00
2022-12-25T10:30:19.224Z,5.57
2022-12-25T10:32:46.581Z,5.17
2022-12-25T10:35:15.566Z,5.43
2022-12-25T10:37:44.144Z,6.57
2022-12-25T10:40:28.984Z,6.77
2022-12-25T10:43:04.287Z,8.83
2022-12-25T10:45:30.601Z,6.30
2022-12-25T10:48:07.855Z,6.37
2022-12-25T10:50:34.637Z,5.40
2022-12-25T10:53:05.083Z,4.93
2022-12-25T10:55:32.952Z,5.30
2022-12-25T10:58:01.823Z,5.10
2022-12-25T11:00:31.434Z,5.33
2022-12-25T11:02:58.778Z,4.77
2022-12-25T11:05:31.422Z,4.77
2022-12-25T11:08:02.816Z,5.27
2022-12-25T11:10:36.397Z,4.77
2022-12-25T11:13:07.466Z,4.70
2022-12-25T11:16:13.119Z,5.13
2022-12-25T11:18:48.994Z,4.93
2022-12-25T11:21:23.175Z,4.37
2022-12-25T11:23:56.576Z,4.63
2022-12-25T11:26:23.021Z,5.10
2022-12-25T11:28:51.635Z,5.47
2022-12-25T11:31:20.734Z,5.10
2022-12-25T11:33:59.996Z,5.53
2022-12-25T11:36:51.541Z,4.60
2022-12-25T11:39:28.002Z,4.70
2022-12-25T11:42:05.287Z,5.07
2022-12-25T11:44:38.528Z,5.30
2022-12-25T11:47:19.114Z,5.30
2022-12-25T11:50:00.017Z,5.53
2022-12-25T11:52:33.796Z,5.30
2022-12-25T11:55:38.254Z,5.20
2022-12-25T11:58:15.766Z,6.27
2022-12-25T12:00:46.120Z,7.33
2022-12-25T12:03:27.868Z,5.73
2022-12-25T12:05:59.775Z,6.37
2022-12-25T12:08:26.222Z,4.60
2022-12-25T12:11:18.647Z,4.53
2022-12-25T12:13:59.789Z,8.80
2022-12-25T12:16:26.396Z,4.93
2022-12-25T12:18:53.370Z,5.97
2022-12-25T12:21:26.093Z,6.40
2022-12-25T12:24:03.287Z,5.57
2022-12-25T12:26:34.589Z,5.77
2022-12-25T12:29:04.071Z,4.60
2022-12-25T12:31:46.332Z,4.60
2022-12-25T12:34:25.061Z,5.00
2022-12-25T12:37:04.956Z,4.67
2022-12-25T12:39:36.721Z,4.60
2022-12-25T12:42:15.769Z,4.63
2022-12-25T12:44:42.831Z,4.77
2022-12-25T12:47:29.040Z,4.70
2022-12-25T12:49:59.791Z,4.73
2022-12-25T12:52:38.131Z,4.50
2022-12-25T12:55:06.038Z,4.80
2022-12-25T12:57:39.435Z,4.67
2022-12-25T13:00:17.727Z,4.90
2022-12-25T13:03:20.037Z,4.53
2022-12-25T13:05:52.713Z,4.47
2022-12-25T13:08:25.117Z,4.30
2022-12-25T13:11:04.361Z,4.73
2022-12-25T13:13:36.744Z,4.80
2022-12-25T13:16:03.541Z,4.33
2022-12-25T13:18:30.500Z,4.40
2022-12-25T13:20:59.981Z,5.00
2022-12-25T13:23:32.229Z,4.20
2022-12-25T13:26:01.293Z,4.50
2022-12-25T13:28:30.006Z,4.27
2022-12-25T13:31:20.778Z,5.17
2022-12-25T13:34:15.369Z,4.40
2022-12-25T13:36:41.686Z,8.57
2022-12-25T13:39:09.630Z,14.00
2022-12-25T13:42:04.268Z,7.80
2022-12-25T13:44:53.329Z,6.30
2022-12-25T13:47:35.142Z,4.73
2022-12-25T13:50:15.046Z,5.23
2022-12-25T13:52:41.656Z,5.00
2022-12-25T13:55:14.121Z,4.60
2022-12-25T13:57:51.198Z,4.90
2022-12-25T14:00:32.631Z,4.20
2022-12-25T14:02:59.559Z,4.60
2022-12-25T14:05:25.959Z,5.90
2022-12-25T14:07:53.772Z,6.00
2022-12-25T14:10:22.818Z,7.90
2022-12-25T14:12:51.256Z,5.70
2022-12-25T14:15:22.841Z,5.20
2022-12-25T14:17:50.980Z,4.80
2022-12-25T14:20:29.888Z,4.80
2022-12-25T14:22:59.242Z,5.43
2022-12-25T14:25:31.238Z,5.43
2022-12-25T14:27:57.790Z,5.60
2022-12-25T14:30:28.967Z,5.60
2022-12-25T14:32:56.766Z,5.53
2022-12-25T14:35:24.065Z,5.80
2022-12-25T14:37:56.354Z,5.73
2022-12-25T14:40:26.752Z,5.57
2022-12-25T14:43:05.025Z,5.70
2022-12-25T14:45:38.427Z,6.30
2022-12-25T14:48:24.497Z,6.30
2022-12-25T14:51:09.829Z,5.53
2022-12-25T14:53:40.793Z,5.97
2022-12-25T14:56:10.334Z,5.97
2022-12-25T14:58:43.589Z,6.43
2022-12-25T15:01:28.673Z,6.80
2022-12-25T15:04:10.119Z,6.33
2022-12-25T15:06:39.936Z,6.17
2022-12-25T15:09:14.874Z,6.17
2022-12-25T15:11:46.960Z,6.37
2022-12-25T15:14:13.249Z,6.27
2022-12-25T15:16:47.011Z,6.60
2022-12-25T15:19:25.256Z,6.43
2022-12-25T15:21:52.241Z,6.53
2022-12-25T15:24:18.564Z,7.27
2022-12-25T15:26:44.896Z,6.93
2022-12-25T15:29:11.255Z,7.93
2022-12-25T15:31:40.885Z,8.13
2022-12-25T15:34:16.614Z,8.00
2022-12-25T15:36:42.968Z,8.40
2022-12-25T15:39:09.360Z,7.90
2022-12-25T15:41:55.784Z,7.67
2022-12-25T15:44:22.727Z,6.83
2022-12-25T15:46:49.197Z,6.57
2022-12-25T15:49:16.201Z,7.47
2022-12-25T15:51:43.435Z,7.50
2022-12-25T15:54:10.535Z,7.30
2022-12-25T15:56:48.400Z,7.40
2022-12-25T15:59:17.523Z,7.33
2022-12-25T16:01:47.423Z,8.00
2022-12-25T16:04:13.883Z,7.43
2022-12-25T16:06:40.248Z,8.20
2022-12-25T16:09:06.823Z,8.27
2022-12-25T16:11:33.141Z,7.80
2022-12-25T16:13:59.408Z,8.77
2022-12-25T16:16:26.062Z,8.80
2022-12-25T16:18:52.462Z,8.47
2022-12-25T16:21:20.952Z,9.17
2022-12-25T16:23:47.492Z,8.17
2022-12-25T16:26:13.853Z,8.33
2022-12-25T16:28:40.121Z,9.00
2022-12-25T16:31:07.267Z,8.67
2022-12-25T16:33:33.718Z,9.07
2022-12-25T16:36:00.058Z,9.00
2022-12-25T16:38:26.393Z,8.90
2022-12-25T16:40:58.302Z,10.23
2022-12-25T16:43:25.276Z,9.57
2022-12-25T16:45:51.939Z,9.87
2022-12-25T16:48:18.386Z,9.50
2022-12-25T16:50:44.799Z,9.47
2022-12-25T16:53:12.414Z,9.03
2022-12-25T16:55:39.049Z,9.80
2022-12-25T16:58:06.254Z,10.23
2022-12-25T17:00:32.670Z,11.20
2022-12-25T17:03:00.728Z,9.63
2022-12-25T17:05:27.426Z,9.87
2022-12-25T17:07:53.739Z,10.07
2022-12-25T17:10:21.158Z,10.80
2022-12-25T17:12:47.555Z,9.73
2022-12-25T17:15:13.965Z,9.73
2022-12-25T17:17:40.292Z,10.43
2022-12-25T17:20:07.183Z,9.80
2022-12-25T17:22:33.578Z,10.07
2022-12-25T17:24:59.947Z,9.30
2022-12-25T17:27:26.698Z,10.10
2022-12-25T17:29:53.096Z,10.63
2022-12-25T17:32:19.474Z,10.97
2022-12-25T17:34:45.759Z,11.77
2022-12-25T17:37:12.045Z,11.60
2022-12-25T17:39:39.454Z,11.60
2022-12-25T17:42:06.164Z,11.03
2022-12-25T17:44:32.447Z,10.33
2022-12-25T17:46:58.789Z,10.03
2022-12-25T17:49:25.402Z,10.03
2022-12-25T17:51:53.441Z,10.50
2022-12-25T17:54:19.784Z,9.10
2022-12-25T17:56:46.094Z,9.57
2022-12-25T17:59:17.940Z,10.60
2022-12-25T18:01:45.754Z,10.13
2022-12-25T18:04:12.567Z,11.13
2022-12-25T18:06:39.127Z,10.93
2022-12-25T18:09:06.102Z,11.50
2022-12-25T18:11:33.111Z,14.20
2022-12-25T18:14:05.084Z,13.50
2022-12-25T18:16:34.527Z,11.77
2022-12-25T18:19:01.164Z,11.50
2022-12-25T18:21:28.229Z,11.77
2022-12-25T18:23:54.780Z,11.60
2022-12-25T18:26:21.643Z,12.90
2022-12-25T18:28:49.513Z,12.40
2022-12-25T18:31:21.610Z,10.43
2022-12-25T18:33:48.776Z,10.03
2022-12-25T18:36:17.497Z,10.43
2022-12-25T18:38:43.823Z,10.60
2022-12-25T18:41:10.642Z,11.63
2022-12-25T18:43:53.089Z,11.33
2022-12-25T18:46:26.336Z,11.17
2022-12-25T18:48:57.095Z,11.20
2022-12-25T18:51:24.024Z,11.70
2022-12-25T18:53:51.058Z,12.00
2022-12-25T18:56:18.028Z,11.67
2022-12-25T18:58:45.177Z,12.50
2022-12-25T19:01:20.635Z,12.13
2022-12-25T19:03:51.716Z,12.97
2022-12-25T19:06:17.988Z,12.37
2022-12-25T19:08:44.420Z,12.60
2022-12-25T19:11:10.719Z,12.17
2022-12-25T19:13:37.061Z,11.67
2022-12-25T19:16:04.134Z,10.47
2022-12-25T19:18:31.119Z,11.53
2022-12-25T19:21:01.686Z,11.73
2022-12-25T19:23:28.008Z,11.43
2022-12-25T19:25:54.305Z,12.33
2022-12-25T19:28:20.779Z,11.27
2022-12-25T19:30:47.160Z,11.00
2022-12-25T19:33:17.665Z,11.70
2022-12-25T19:35:44.541Z,12.50
2022-12-25T19:38:10.850Z,13.20
2022-12-25T19:40:38.778Z,13.73
2022-12-25T19:43:06.030Z,14.43
2022-12-25T19:45:32.939Z,14.03
2022-12-25T19:47:59.345Z,13.13
2022-12-25T19:50:28.405Z,13.83
2022-12-25T19:52:55.505Z,14.13
2022-12-25T19:55:22.057Z,15.03
2022-12-25T19:57:49.530Z,14.17
2022-12-25T20:00:16.348Z,13.53
2022-12-25T20:02:42.763Z,14.83
2022-12-25T20:05:09.249Z,14.93
2022-12-25T20:07:35.587Z,14.17
2022-12-25T20:10:01.916Z,14.70
2022-12-25T20:12:28.202Z,14.63
2022-12-25T20:14:54.483Z,13.77
2022-12-25T20:17:20.964Z,13.77
2022-12-25T20:19:47.244Z,13.90
2022-12-25T20:22:13.727Z,14.30
2022-12-25T20:24:41.144Z,14.20
2022-12-25T20:27:07.484Z,13.73
2022-12-25T20:29:33.799Z,13.87
2022-12-25T20:32:00.240Z,14.43
2022-12-25T20:34:26.655Z,14.37
2022-12-25T20:36:52.924Z,13.37
2022-12-25T20:39:19.267Z,14.37
2022-12-25T20:41:47.424Z,15.10
2022-12-25T20:44:13.798Z,14.27
2022-12-25T20:46:40.157Z,14.43
2022-12-25T20:49:06.644Z,14.77
2022-12-25T20:51:32.995Z,13.53
2022-12-25T20:53:59.319Z,14.23
2022-12-25T20:56:27.042Z,14.77
2022-12-25T20:58:58.357Z,14.70
2022-12-25T21:01:25.697Z,14.13
2022-12-25T21:03:53.127Z,14.60
2022-12-25T21:06:19.772Z,13.53
2022-12-25T21:08:46.189Z,14.37
2022-12-25T21:11:14.094Z,14.47
2022-12-25T21:13:42.241Z,13.90
2022-12-25T21:16:12.897Z,14.00
2022-12-25T21:18:39.424Z,14.63
2022-12-25T21:21:07.345Z,14.33
2022-12-25T21:23:35.399Z,13.80
2022-12-25T21:26:21.221Z,14.73
2022-12-25T21:28:49.810Z,14.70
2022-12-25T21:31:16.978Z,14.10
2022-12-25T21:33:52.663Z,14.03
2022-12-25T21:36:20.810Z,14.27
2022-12-25T21:38:47.270Z,14.67
2022-12-25T21:41:14.747Z,13.70
2022-12-25T21:43:42.818Z,13.97
2022-12-25T21:46:12.525Z,14.47
2022-12-25T21:48:39.796Z,13.87
2022-12-25T21:51:34.927Z,15.00
2022-12-25T21:54:01.779Z,14.03
2022-12-25T21:56:41.324Z,13.40
2022-12-25T21:59:13.317Z,13.87
2022-12-25T22:01:39.903Z,14.20
2022-12-25T22:04:08.363Z,12.63
2022-12-25T22:06:53.778Z,14.77
2022-12-25T22:09:21.376Z,13.60
2022-12-25T22:12:06.660Z,12.57
2022-12-25T22:14:56.690Z,11.47
2022-12-25T22:17:44.839Z,11.57
2022-12-25T22:20:26.236Z,11.73
2022-12-25T22:22:53.144Z,11.73
2022-12-25T22:25:20.187Z,11.33
2022-12-25T22:27:48.482Z,11.67
2022-12-25T22:30:17.384Z,11.67
2022-12-25T22:32:44.041Z,12.57
2022-12-25T22:35:12.017Z,12.27
2022-12-25T22:37:39.532Z,12.70
2022-12-25T22:40:07.408Z,13.13
2022-12-25T22:42:33.935Z,13.47
2022-12-25T22:45:00.409Z,13.27
2022-12-25T22:47:26.681Z,11.73
2022-12-25T22:49:53.014Z,12.07
2022-12-25T22:52:19.376Z,13.00
2022-12-25T22:54:45.676Z,13.13
2022-12-25T22:57:12.002Z,12.50
2022-12-25T22:59:38.413Z,13.17
2022-12-25T23:02:04.814Z,13.73
2022-12-25T23:04:31.284Z,14.10
2022-12-25T23:06:57.831Z,12.47
2022-12-25T23:09:27.634Z,12.47
2022-12-25T23:11:58.482Z,12.87
2022-12-25T23:14:38.639Z,11.83
2022-12-25T23:17:06.601Z,12.43
2022-12-25T23:19:51.943Z,11.90
2022-12-25T23:22:36.791Z,11.77
2022-12-25T23:25:22.125Z,11.57
2022-12-25T23:27:48.510Z,11.37
2022-12-25T23:30:16.556Z,11.03
2022-12-25T23:32:44.055Z,11.60
2022-12-25T23:35:11.534Z,11.53
2022-12-25T23:37:37.818Z,11.20
2022-12-25T23:40:04.947Z,11.17
2022-12-25T23:42:37.181Z,10.83
2022-12-25T23:45:03.620Z,10.53
2022-12-25T23:47:29.868Z,10.07
2022-12-25T23:49:56.154Z,9.90
2022-12-25T23:52:22.465Z,10.20
2022-12-25T23:54:48.732Z,10.20
2022-12-25T23:57:15.034Z,9.87
2022-12-25T23:59:41.477Z,9.83
